Аэропорт: Полярный. Удачный

ICAO: UERP

METAR:
2019/03/25 10:30
UERP 251030Z VRB01MPS CAVOK M11/M24 Q1015 R35/850250 NOSIG RMK QFE717
METAR:
2019/03/26 12:21
TAF TAF UERP 261100Z 2612/2712 29003MPS CAVOK 
      TEMPO 2621/2624 0800 FZFG VV004